createdAt,value
2022-11-29T00:01:01.655Z,10.80
2022-11-29T00:03:29.968Z,10.83
2022-11-29T00:05:57.936Z,10.70
2022-11-29T00:08:25.431Z,10.58
2022-11-29T00:10:53.345Z,10.66
2022-11-29T00:13:20.799Z,10.69
2022-11-29T00:15:48.286Z,10.68
2022-11-29T00:18:17.072Z,10.70
2022-11-29T00:20:44.538Z,10.73
2022-11-29T00:23:12.017Z,10.73
2022-11-29T00:25:39.867Z,10.69
2022-11-29T00:28:07.512Z,10.67
2022-11-29T00:30:35.020Z,10.73
2022-11-29T00:33:03.033Z,10.70
2022-11-29T00:35:31.831Z,10.57
2022-11-29T00:37:59.328Z,10.68
2022-11-29T00:40:26.792Z,10.74
2022-11-29T00:42:54.235Z,10.55
2022-11-29T00:45:21.820Z,10.61
2022-11-29T00:47:49.257Z,10.69
2022-11-29T00:50:16.779Z,10.71
2022-11-29T00:52:45.570Z,10.55
2022-11-29T00:55:13.022Z,10.37
2022-11-29T00:57:40.486Z,10.31
2022-11-29T01:00:09.359Z,10.31
2022-11-29T01:02:36.878Z,10.42
2022-11-29T01:05:04.573Z,10.51
2022-11-29T01:07:32.079Z,10.54
2022-11-29T01:10:00.882Z,10.53
2022-11-29T01:12:28.341Z,10.61
2022-11-29T01:14:55.783Z,10.49
2022-11-29T01:17:23.271Z,10.42
2022-11-29T01:19:51.239Z,10.46
2022-11-29T01:22:18.739Z,10.41
2022-11-29T01:24:46.416Z,10.43
2022-11-29T01:27:15.566Z,10.47
2022-11-29T01:29:43.058Z,10.51
2022-11-29T01:32:12.302Z,10.40
2022-11-29T01:34:40.352Z,10.28
2022-11-29T01:37:07.852Z,10.27
2022-11-29T01:39:35.598Z,10.39
2022-11-29T01:42:03.061Z,10.45
2022-11-29T01:45:08.868Z,10.57
2022-11-29T01:47:46.943Z,10.61
2022-11-29T01:50:14.655Z,10.66
2022-11-29T01:52:43.028Z,10.61
2022-11-29T01:55:11.128Z,10.45
2022-11-29T01:57:41.870Z,10.47
2022-11-29T02:00:15.496Z,10.33
2022-11-29T02:02:45.289Z,10.37
2022-11-29T02:05:15.215Z,10.49
2022-11-29T02:07:45.700Z,10.54
2022-11-29T02:10:15.555Z,10.64
2022-11-29T02:12:55.257Z,10.69
2022-11-29T02:15:34.214Z,10.76
2022-11-29T02:18:07.574Z,10.79
2022-11-29T02:21:03.847Z,10.73
2022-11-29T02:23:58.367Z,10.79
2022-11-29T02:26:50.352Z,10.80
2022-11-29T02:29:32.612Z,10.84
2022-11-29T02:32:20.411Z,10.76
2022-11-29T02:35:00.111Z,10.79
2022-11-29T02:37:57.851Z,10.80
2022-11-29T02:40:52.151Z,10.88
2022-11-29T02:43:35.556Z,10.90
2022-11-29T02:46:27.752Z,10.87
2022-11-29T02:49:03.468Z,10.84
2022-11-29T02:51:40.024Z,10.86
2022-11-29T02:54:13.119Z,10.91
2022-11-29T02:56:47.557Z,10.94
2022-11-29T02:59:24.551Z,10.94
2022-11-29T03:02:02.238Z,10.90
2022-11-29T03:04:35.405Z,10.94
2022-11-29T03:07:14.220Z,10.95
2022-11-29T03:09:47.220Z,10.90
2022-11-29T03:12:22.850Z,10.94
2022-11-29T03:14:58.210Z,10.91
2022-11-29T03:17:36.549Z,10.94
2022-11-29T03:20:27.077Z,10.92
2022-11-29T03:23:09.672Z,10.96
2022-11-29T03:25:40.673Z,10.92
2022-11-29T03:28:14.451Z,10.99
2022-11-29T03:30:48.873Z,10.91
2022-11-29T03:33:25.586Z,10.90
2022-11-29T03:36:00.493Z,10.88
2022-11-29T03:38:36.025Z,10.91
2022-11-29T03:41:15.004Z,10.88
2022-11-29T03:43:46.670Z,10.84
2022-11-29T03:46:19.753Z,10.91
2022-11-29T03:48:50.692Z,10.88
2022-11-29T03:51:23.164Z,10.88
2022-11-29T03:53:58.200Z,10.89
2022-11-29T03:56:32.438Z,10.90
2022-11-29T03:59:13.204Z,10.84
2022-11-29T04:02:09.100Z,10.80
2022-11-29T04:05:08.828Z,10.79
2022-11-29T04:07:49.950Z,10.74
2022-11-29T04:10:28.823Z,10.78
2022-11-29T04:13:26.254Z,10.83
2022-11-29T04:16:25.721Z,10.60
2022-11-29T04:19:37.599Z,10.65
2022-11-29T04:22:23.862Z,10.72
2022-11-29T04:25:23.213Z,10.79
2022-11-29T04:28:33.646Z,10.76
2022-11-29T04:31:14.521Z,10.79
2022-11-29T04:34:16.532Z,10.86
2022-11-29T04:36:58.057Z,10.83
2022-11-29T04:39:51.184Z,10.83
2022-11-29T04:42:48.418Z,10.83
2022-11-29T04:45:38.600Z,10.81
2022-11-29T04:48:24.825Z,10.79
2022-11-29T04:51:04.987Z,10.79
2022-11-29T04:53:53.767Z,10.82
2022-11-29T04:56:29.467Z,10.88
2022-11-29T04:59:03.138Z,10.70
2022-11-29T05:01:42.284Z,10.74
2022-11-29T05:04:18.160Z,10.82
2022-11-29T05:06:59.253Z,10.77
2022-11-29T05:09:37.852Z,10.75
2022-11-29T05:12:15.349Z,10.74
2022-11-29T05:15:02.890Z,10.71
2022-11-29T05:17:43.327Z,10.80
2022-11-29T05:20:26.421Z,10.84
2022-11-29T05:23:05.958Z,10.79
2022-11-29T05:25:41.397Z,10.71
2022-11-29T05:28:16.650Z,10.79
2022-11-29T05:30:55.323Z,10.74
2022-11-29T05:33:38.535Z,10.55
2022-11-29T05:36:18.301Z,10.60
2022-11-29T05:38:58.128Z,10.68
2022-11-29T05:41:44.847Z,10.69
2022-11-29T05:44:16.466Z,10.69
2022-11-29T05:46:55.051Z,10.62
2022-11-29T05:49:34.372Z,10.68
2022-11-29T05:52:20.099Z,10.73
2022-11-29T05:54:52.203Z,10.79
2022-11-29T05:57:38.329Z,10.76
2022-11-29T06:00:07.615Z,10.64
2022-11-29T06:02:49.789Z,10.64
2022-11-29T06:05:26.880Z,10.60
2022-11-29T06:07:59.383Z,10.63
2022-11-29T06:10:32.673Z,10.66
2022-11-29T06:13:11.058Z,10.64
2022-11-29T06:15:56.553Z,10.71
2022-11-29T06:18:46.131Z,10.61
2022-11-29T06:21:23.767Z,10.60
2022-11-29T06:24:26.080Z,10.61
2022-11-29T06:27:14.717Z,10.66
2022-11-29T06:29:49.297Z,10.62
2022-11-29T06:32:25.418Z,10.68
2022-11-29T06:34:58.850Z,10.67
2022-11-29T06:37:34.327Z,10.68
2022-11-29T06:40:02.303Z,10.64
2022-11-29T06:42:29.777Z,10.59
2022-11-29T06:44:57.932Z,10.57
2022-11-29T06:47:30.760Z,10.66
2022-11-29T06:50:04.609Z,10.57
2022-11-29T06:52:44.738Z,10.58
2022-11-29T06:55:17.981Z,10.56
2022-11-29T06:58:02.097Z,10.56
2022-11-29T07:00:40.493Z,10.54
2022-11-29T07:03:30.583Z,10.54
2022-11-29T07:05:59.099Z,10.54
2022-11-29T07:08:28.535Z,10.54
2022-11-29T07:10:56.568Z,10.52
2022-11-29T07:13:24.549Z,10.48
2022-11-29T07:16:01.633Z,10.46
2022-11-29T07:18:35.071Z,10.45
2022-11-29T07:21:14.603Z,10.44
2022-11-29T07:23:53.907Z,10.45
2022-11-29T07:26:30.066Z,10.45
2022-11-29T07:29:16.853Z,10.48
2022-11-29T07:31:55.410Z,10.54
2022-11-29T07:34:30.916Z,10.54
2022-11-29T07:37:05.032Z,10.45
2022-11-29T07:39:44.905Z,10.42
2022-11-29T07:42:20.618Z,10.44
2022-11-29T07:44:57.009Z,10.51
2022-11-29T07:47:24.480Z,10.39
2022-11-29T07:49:52.019Z,10.37
2022-11-29T07:52:19.600Z,10.47
2022-11-29T07:54:48.610Z,10.50
2022-11-29T07:57:16.130Z,10.51
2022-11-29T07:59:43.818Z,10.53
2022-11-29T08:02:12.092Z,10.51
2022-11-29T08:04:43.205Z,10.42
2022-11-29T08:07:11.219Z,10.50
2022-11-29T08:09:38.666Z,10.52
2022-11-29T08:12:08.293Z,10.58
2022-11-29T08:14:35.776Z,10.58
2022-11-29T08:17:03.451Z,10.52
2022-11-29T08:19:30.875Z,10.54
2022-11-29T08:21:58.397Z,10.51
2022-11-29T08:24:26.959Z,10.53
2022-11-29T08:26:54.585Z,10.61
2022-11-29T08:29:23.666Z,10.63
2022-11-29T08:31:53.222Z,10.68
2022-11-29T08:34:21.160Z,10.66
2022-11-29T08:36:48.768Z,10.56
2022-11-29T08:39:16.237Z,10.34
2022-11-29T08:41:44.096Z,10.44
2022-11-29T08:44:11.537Z,10.50
2022-11-29T08:46:58.048Z,10.54
2022-11-29T08:49:25.547Z,10.46
2022-11-29T08:52:13.609Z,10.46
2022-11-29T08:54:40.090Z,10.52
2022-11-29T08:57:38.458Z,10.55
2022-11-29T08:59:55.070Z,10.61
2022-11-29T09:02:24.001Z,10.59
2022-11-29T09:04:51.456Z,10.69
2022-11-29T09:07:18.962Z,10.71
2022-11-29T09:09:46.419Z,10.77
2022-11-29T09:12:13.870Z,10.76
2022-11-29T09:14:41.650Z,10.78
2022-11-29T09:17:09.156Z,10.85
2022-11-29T09:19:37.967Z,10.88
2022-11-29T09:22:05.484Z,10.84
2022-11-29T09:24:34.227Z,10.91
2022-11-29T09:27:01.690Z,10.94
2022-11-29T09:29:29.182Z,10.93
2022-11-29T09:31:56.687Z,10.94
2022-11-29T09:34:24.443Z,10.96
2022-11-29T09:36:53.289Z,11.01
2022-11-29T09:39:20.861Z,10.96
2022-11-29T09:42:22.112Z,11.01
2022-11-29T09:45:01.546Z,11.05
2022-11-29T09:48:02.177Z,11.07
2022-11-29T09:50:34.825Z,11.12
2022-11-29T09:53:21.117Z,11.10
2022-11-29T09:56:01.168Z,11.07
2022-11-29T09:58:33.897Z,11.08
2022-11-29T10:01:05.353Z,11.15
2022-11-29T10:03:37.163Z,11.17
2022-11-29T10:06:09.679Z,11.13
2022-11-29T10:08:44.050Z,11.17
2022-11-29T10:11:20.414Z,11.07
2022-11-29T10:13:53.008Z,10.88
2022-11-29T10:16:26.835Z,10.63
2022-11-29T10:18:59.744Z,10.79
2022-11-29T10:21:32.688Z,10.89
2022-11-29T10:24:06.349Z,10.91
2022-11-29T10:26:35.498Z,11.03
2022-11-29T10:29:03.502Z,11.11
2022-11-29T10:31:36.464Z,11.14
2022-11-29T10:34:12.908Z,11.09
2022-11-29T10:36:44.409Z,11.11
2022-11-29T10:39:18.284Z,11.13
2022-11-29T10:41:46.325Z,11.11
2022-11-29T10:44:15.813Z,11.18
2022-11-29T10:46:43.455Z,11.17
2022-11-29T10:49:15.846Z,11.23
2022-11-29T10:51:43.661Z,11.20
2022-11-29T10:54:29.660Z,11.23
2022-11-29T10:56:58.076Z,11.23
2022-11-29T10:59:27.455Z,11.23
2022-11-29T11:01:55.471Z,11.25
2022-11-29T11:04:29.287Z,11.26
2022-11-29T11:07:00.880Z,11.22
2022-11-29T11:09:37.598Z,11.14
2022-11-29T11:12:08.884Z,11.19
2022-11-29T11:14:38.559Z,11.18
2022-11-29T11:17:22.429Z,11.16
2022-11-29T11:19:57.012Z,11.20
2022-11-29T11:22:26.817Z,11.19
2022-11-29T11:25:02.009Z,11.18
2022-11-29T11:27:30.925Z,11.13
2022-11-29T11:29:59.471Z,11.13
2022-11-29T11:32:27.109Z,11.15
2022-11-29T11:34:55.768Z,11.18
2022-11-29T11:37:26.012Z,11.08
2022-11-29T11:39:56.675Z,11.09
2022-11-29T11:42:38.653Z,11.08
2022-11-29T11:45:23.907Z,11.10
2022-11-29T11:47:53.871Z,11.17
2022-11-29T11:50:29.479Z,11.09
2022-11-29T11:52:59.237Z,11.07
2022-11-29T11:55:33.263Z,11.11
2022-11-29T11:58:10.274Z,11.10
2022-11-29T12:01:02.847Z,11.08
2022-11-29T12:03:44.538Z,11.10
2022-11-29T12:06:25.657Z,11.11
2022-11-29T12:08:58.650Z,10.99
2022-11-29T12:11:27.250Z,11.04
2022-11-29T12:14:00.099Z,11.05
2022-11-29T12:16:34.304Z,11.11
2022-11-29T12:19:05.966Z,11.14
2022-11-29T12:21:39.287Z,11.26
2022-11-29T12:24:19.872Z,11.18
2022-11-29T12:26:57.159Z,11.25
2022-11-29T12:29:33.547Z,11.27
2022-11-29T12:32:12.693Z,11.24
2022-11-29T12:34:53.650Z,11.19
2022-11-29T12:37:26.050Z,11.16
2022-11-29T12:39:58.524Z,11.07
2022-11-29T12:42:36.556Z,11.10
2022-11-29T12:45:25.178Z,11.15
2022-11-29T12:48:04.887Z,11.08
2022-11-29T12:50:45.294Z,11.06
2022-11-29T12:53:27.538Z,11.09
2022-11-29T12:56:05.987Z,11.11
2022-11-29T12:58:46.223Z,11.12
2022-11-29T13:01:23.625Z,11.10
2022-11-29T13:03:59.840Z,11.00
2022-11-29T13:06:32.488Z,10.94
2022-11-29T13:09:21.683Z,10.96
2022-11-29T13:11:56.888Z,10.86
2022-11-29T13:14:43.892Z,10.97
2022-11-29T13:17:26.074Z,10.96
2022-11-29T13:19:57.280Z,11.00
2022-11-29T13:22:29.676Z,10.88
2022-11-29T13:25:00.083Z,10.87
2022-11-29T13:27:32.001Z,10.86
2022-11-29T13:30:00.523Z,10.98
2022-11-29T13:32:36.063Z,10.88
2022-11-29T13:35:08.809Z,10.81
2022-11-29T13:37:43.635Z,10.80
2022-11-29T13:40:24.324Z,10.86
2022-11-29T13:43:01.067Z,10.91
2022-11-29T13:45:37.391Z,10.73
2022-11-29T13:48:27.844Z,10.80
2022-11-29T13:50:57.120Z,10.73
2022-11-29T13:53:26.311Z,10.80
2022-11-29T13:56:01.285Z,10.84
2022-11-29T13:58:37.728Z,10.91
2022-11-29T14:01:09.018Z,10.95
2022-11-29T14:03:42.508Z,10.95
2022-11-29T14:06:20.904Z,10.97
2022-11-29T14:09:19.666Z,11.04
2022-11-29T14:11:50.543Z,11.04
2022-11-29T14:14:27.083Z,11.04
2022-11-29T14:16:58.935Z,11.02
2022-11-29T14:19:33.709Z,11.03
2022-11-29T14:22:25.140Z,11.09
2022-11-29T14:25:16.531Z,11.05
2022-11-29T14:28:01.637Z,11.06
2022-11-29T14:30:45.102Z,11.08
2022-11-29T14:33:24.042Z,11.10
2022-11-29T14:36:17.920Z,11.21
2022-11-29T14:38:55.852Z,11.20
2022-11-29T14:41:32.779Z,10.92
2022-11-29T14:44:15.102Z,10.97
2022-11-29T14:46:42.644Z,10.95
2022-11-29T14:49:22.879Z,10.91
2022-11-29T14:52:11.237Z,10.87
2022-11-29T14:54:55.660Z,10.74
2022-11-29T14:58:05.692Z,10.50
2022-11-29T15:00:41.756Z,10.42
2022-11-29T15:03:13.735Z,10.22
2022-11-29T15:05:43.816Z,10.23
2022-11-29T15:08:17.457Z,10.41
2022-11-29T15:10:50.020Z,10.60
2022-11-29T15:13:24.048Z,10.77
2022-11-29T15:16:12.686Z,10.80
2022-11-29T15:19:02.593Z,10.83
2022-11-29T15:21:38.671Z,10.88
2022-11-29T15:24:13.451Z,10.92
2022-11-29T15:26:55.735Z,10.95
2022-11-29T15:29:23.519Z,10.93
2022-11-29T15:31:54.266Z,10.84
2022-11-29T15:34:26.546Z,10.84
2022-11-29T15:36:54.076Z,10.86
2022-11-29T15:39:31.720Z,10.77
2022-11-29T15:42:04.118Z,10.62
2022-11-29T15:44:33.162Z,10.48
2022-11-29T15:47:17.663Z,10.43
2022-11-29T15:49:45.176Z,10.53
2022-11-29T15:52:20.481Z,10.69
2022-11-29T15:54:53.100Z,10.59
2022-11-29T15:57:26.168Z,10.61
2022-11-29T15:59:56.688Z,10.63
2022-11-29T16:02:27.540Z,10.52
2022-11-29T16:04:58.905Z,10.47
2022-11-29T16:07:31.996Z,10.42
2022-11-29T16:10:04.752Z,10.46
2022-11-29T16:12:33.092Z,10.39
2022-11-29T16:15:02.045Z,10.20
2022-11-29T16:17:31.835Z,10.20
2022-11-29T16:20:22.604Z,10.20
2022-11-29T16:23:04.072Z,10.19
2022-11-29T16:25:37.669Z,10.35
2022-11-29T16:28:06.442Z,10.43
2022-11-29T16:30:34.161Z,10.28
2022-11-29T16:33:03.947Z,10.41
2022-11-29T16:35:33.726Z,10.39
2022-11-29T16:38:04.476Z,10.39
2022-11-29T16:40:35.589Z,10.50
2022-11-29T16:43:09.152Z,10.49
2022-11-29T16:45:38.666Z,10.47
2022-11-29T16:48:29.952Z,10.39
2022-11-29T16:51:18.067Z,10.29
2022-11-29T16:53:49.824Z,10.09
2022-11-29T16:56:22.198Z,9.94
2022-11-29T16:59:24.922Z,10.02
2022-11-29T17:01:41.558Z,10.14
2022-11-29T17:04:10.070Z,10.22
2022-11-29T17:06:37.933Z,10.21
2022-11-29T17:09:06.020Z,10.26
2022-11-29T17:11:34.826Z,10.22
2022-11-29T17:14:02.316Z,10.19
2022-11-29T17:16:29.830Z,10.20
2022-11-29T17:18:57.287Z,10.30
2022-11-29T17:21:26.007Z,10.08
2022-11-29T17:23:54.476Z,9.96
2022-11-29T17:26:22.978Z,10.08
2022-11-29T17:28:53.108Z,10.19
2022-11-29T17:31:22.689Z,10.25
2022-11-29T17:33:50.301Z,10.38
2022-11-29T17:36:20.900Z,10.45
2022-11-29T17:38:48.725Z,10.45
2022-11-29T17:41:18.548Z,10.53
2022-11-29T17:43:46.019Z,10.50
2022-11-29T17:46:16.740Z,10.49
2022-11-29T17:48:46.460Z,10.52
2022-11-29T17:51:43.751Z,10.50
2022-11-29T17:54:04.281Z,10.51
2022-11-29T17:56:32.247Z,10.51
2022-11-29T17:59:01.804Z,10.51
2022-11-29T18:01:33.243Z,10.54
2022-11-29T18:04:02.621Z,10.59
2022-11-29T18:06:32.202Z,10.62
2022-11-29T18:09:01.328Z,10.66
2022-11-29T18:11:30.893Z,10.61
2022-11-29T18:14:00.104Z,10.58
2022-11-29T18:16:30.596Z,10.61
2022-11-29T18:19:00.320Z,10.63
2022-11-29T18:21:28.459Z,10.68
2022-11-29T18:23:56.094Z,10.59
2022-11-29T18:26:25.628Z,10.53
2022-11-29T18:28:53.436Z,10.52
2022-11-29T18:31:22.662Z,10.58
2022-11-29T18:33:54.248Z,10.57
2022-11-29T18:36:24.009Z,10.58
2022-11-29T18:38:56.732Z,10.55
2022-11-29T18:41:25.852Z,10.59
2022-11-29T18:43:58.754Z,10.52
2022-11-29T18:46:28.171Z,10.46
2022-11-29T18:48:57.100Z,10.45
2022-11-29T18:51:24.617Z,10.53
2022-11-29T18:53:53.104Z,10.52
2022-11-29T18:56:23.008Z,10.55
2022-11-29T18:58:58.203Z,10.56
2022-11-29T19:01:27.875Z,10.57
2022-11-29T19:04:00.079Z,10.53
2022-11-29T19:06:35.437Z,10.54
2022-11-29T19:09:07.795Z,10.44
2022-11-29T19:11:35.488Z,10.39
2022-11-29T19:14:05.196Z,10.43
2022-11-29T19:16:34.372Z,10.41
2022-11-29T19:19:04.131Z,10.42
2022-11-29T19:21:34.272Z,10.42
2022-11-29T19:24:03.485Z,10.42
2022-11-29T19:26:32.574Z,10.47
2022-11-29T19:29:01.788Z,10.46
2022-11-29T19:31:29.510Z,10.44
2022-11-29T19:33:58.075Z,10.39
2022-11-29T19:36:29.611Z,10.34
2022-11-29T19:38:58.061Z,10.43
2022-11-29T19:41:27.471Z,10.42
2022-11-29T19:43:56.458Z,10.41
2022-11-29T19:46:26.413Z,10.44
2022-11-29T19:49:01.409Z,10.36
2022-11-29T19:51:31.257Z,10.38
2022-11-29T19:54:00.658Z,10.28
2022-11-29T19:56:29.847Z,10.28
2022-11-29T19:58:59.615Z,10.30
2022-11-29T20:01:36.049Z,10.43
2022-11-29T20:04:07.738Z,10.33
2022-11-29T20:06:36.944Z,10.27
2022-11-29T20:09:06.047Z,10.29
2022-11-29T20:11:33.651Z,10.32
2022-11-29T20:14:03.497Z,10.41
2022-11-29T20:16:32.219Z,10.39
2022-11-29T20:19:00.207Z,10.42
2022-11-29T20:21:29.598Z,10.39
2022-11-29T20:24:00.536Z,10.32
2022-11-29T20:26:28.987Z,10.11
2022-11-29T20:28:56.662Z,9.88
2022-11-29T20:31:34.210Z,10.09
2022-11-29T20:34:02.168Z,10.10
2022-11-29T20:36:43.161Z,10.20
2022-11-29T20:39:26.172Z,10.16
2022-11-29T20:42:10.717Z,10.17
2022-11-29T20:44:40.217Z,10.11
2022-11-29T20:47:17.180Z,9.99
2022-11-29T20:49:45.075Z,9.95
2022-11-29T20:52:24.920Z,9.92
2022-11-29T20:54:54.224Z,9.98
2022-11-29T20:57:23.983Z,10.02
2022-11-29T20:59:51.552Z,9.93
2022-11-29T21:02:23.257Z,9.99
2022-11-29T21:04:51.020Z,10.06
2022-11-29T21:07:18.876Z,10.05
2022-11-29T21:09:46.934Z,10.15
2022-11-29T21:12:16.956Z,10.08
2022-11-29T21:14:45.147Z,9.90
2022-11-29T21:17:13.572Z,9.88
2022-11-29T21:19:41.577Z,10.01
2022-11-29T21:22:17.911Z,10.02
2022-11-29T21:24:54.436Z,10.03
2022-11-29T21:27:28.216Z,9.83
2022-11-29T21:29:56.722Z,9.91
2022-11-29T21:32:25.853Z,9.83
2022-11-29T21:34:53.855Z,9.93
2022-11-29T21:37:26.079Z,9.93
2022-11-29T21:39:54.565Z,9.73
2022-11-29T21:42:23.490Z,9.82
2022-11-29T21:44:51.072Z,9.80
2022-11-29T21:47:19.810Z,9.76
2022-11-29T21:49:47.909Z,9.68
2022-11-29T21:52:22.047Z,9.76
2022-11-29T21:54:50.353Z,9.89
2022-11-29T21:57:17.901Z,9.94
2022-11-29T21:59:47.288Z,10.00
2022-11-29T22:02:14.957Z,9.97
2022-11-29T22:04:42.784Z,9.99
2022-11-29T22:07:10.456Z,10.04
2022-11-29T22:09:37.969Z,9.92
2022-11-29T22:12:19.769Z,9.93
2022-11-29T22:14:54.492Z,9.92
2022-11-29T22:17:22.011Z,9.89
2022-11-29T22:19:49.491Z,9.92
2022-11-29T22:22:17.101Z,9.82
2022-11-29T22:24:44.807Z,9.84
2022-11-29T22:27:12.499Z,9.73
2022-11-29T22:29:39.957Z,9.83
2022-11-29T22:32:08.793Z,9.74
2022-11-29T22:34:36.257Z,9.84
2022-11-29T22:37:03.760Z,9.90
2022-11-29T22:39:31.297Z,9.92
2022-11-29T22:41:58.823Z,9.94
2022-11-29T22:44:26.286Z,9.80
2022-11-29T22:46:53.889Z,9.89
2022-11-29T22:49:22.796Z,9.94
2022-11-29T22:51:50.255Z,9.97
2022-11-29T22:54:17.888Z,9.97
2022-11-29T22:56:46.413Z,9.99
2022-11-29T22:59:14.053Z,9.95
2022-11-29T23:01:42.458Z,9.94
2022-11-29T23:04:11.040Z,9.99
2022-11-29T23:06:42.008Z,9.94
2022-11-29T23:09:11.983Z,10.02
2022-11-29T23:11:39.824Z,10.11
2022-11-29T23:14:07.377Z,10.12
2022-11-29T23:16:35.171Z,10.12
2022-11-29T23:19:02.868Z,10.09
2022-11-29T23:21:32.405Z,10.07
2022-11-29T23:24:01.719Z,10.14
2022-11-29T23:26:31.195Z,10.23
2022-11-29T23:28:59.559Z,10.28
2022-11-29T23:31:27.203Z,10.17
2022-11-29T23:33:55.001Z,10.16
2022-11-29T23:36:22.530Z,10.13
2022-11-29T23:38:50.290Z,10.15
2022-11-29T23:41:19.225Z,10.12
2022-11-29T23:43:46.908Z,10.11
2022-11-29T23:46:16.269Z,10.08
2022-11-29T23:48:43.953Z,10.08
2022-11-29T23:51:12.082Z,10.12
2022-11-29T23:53:40.191Z,10.14
2022-11-29T23:56:10.633Z,10.16
2022-11-29T23:58:40.179Z,10.16
